sensor_id;sensor_type;location;lat;lon;timestamp;P1;durP1;ratioP1;P2;durP2;ratioP2
65896;SDS011;52677;50.898;10.854;2023-11-19T00:01:53;1.20;;;1.10;;
65896;SDS011;52677;50.898;10.854;2023-11-19T00:03:53;1.20;;;1.00;;
65896;SDS011;52677;50.898;10.854;2023-11-19T00:05:54;0.98;;;0.88;;
65896;SDS011;52677;50.898;10.854;2023-11-19T00:07:54;2.40;;;0.80;;
65896;SDS011;52677;50.898;10.854;2023-11-19T00:09:54;0.70;;;0.70;;
65896;SDS011;52677;50.898;10.854;2023-11-19T00:11:55;0.60;;;0.60;;
65896;SDS011;52677;50.898;10.854;2023-11-19T00:13:55;1.00;;;0.77;;
65896;SDS011;52677;50.898;10.854;2023-11-19T00:15:55;0.70;;;0.70;;
65896;SDS011;52677;50.898;10.854;2023-11-19T00:17:57;2.83;;;0.70;;
65896;SDS011;52677;50.898;10.854;2023-11-19T00:19:57;0.68;;;0.68;;
65896;SDS011;52677;50.898;10.854;2023-11-19T00:21:58;1.20;;;0.80;;
65896;SDS011;52677;50.898;10.854;2023-11-19T00:24:02;0.88;;;0.70;;
65896;SDS011;52677;50.898;10.854;2023-11-19T00:26:04;0.95;;;0.70;;
65896;SDS011;52677;50.898;10.854;2023-11-19T00:28:06;2.77;;;1.23;;
65896;SDS011;52677;50.898;10.854;2023-11-19T00:30:06;1.52;;;1.30;;
65896;SDS011;52677;50.898;10.854;2023-11-19T00:32:08;0.70;;;0.70;;
65896;SDS011;52677;50.898;10.854;2023-11-19T00:34:08;0.95;;;0.70;;
65896;SDS011;52677;50.898;10.854;2023-11-19T00:36:08;0.73;;;0.70;;
65896;SDS011;52677;50.898;10.854;2023-11-19T00:38:09;0.77;;;0.60;;
65896;SDS011;52677;50.898;10.854;2023-11-19T00:40:09;0.60;;;0.60;;
65896;SDS011;52677;50.898;10.854;2023-11-19T00:42:10;0.50;;;0.50;;
65896;SDS011;52677;50.898;10.854;2023-11-19T00:44:11;0.60;;;0.60;;
65896;SDS011;52677;50.898;10.854;2023-11-19T00:46:11;0.70;;;0.70;;
65896;SDS011;52677;50.898;10.854;2023-11-19T00:48:11;1.23;;;0.80;;
65896;SDS011;52677;50.898;10.854;2023-11-19T00:50:12;0.65;;;0.60;;
65896;SDS011;52677;50.898;10.854;2023-11-19T00:52:13;1.08;;;0.80;;
65896;SDS011;52677;50.898;10.854;2023-11-19T00:54:13;1.70;;;0.70;;
65896;SDS011;52677;50.898;10.854;2023-11-19T00:56:14;1.35;;;0.65;;
65896;SDS011;52677;50.898;10.854;2023-11-19T00:58:14;0.65;;;0.65;;
65896;SDS011;52677;50.898;10.854;2023-11-19T01:00:14;1.77;;;0.70;;
65896;SDS011;52677;50.898;10.854;2023-11-19T01:02:18;2.03;;;0.88;;
65896;SDS011;52677;50.898;10.854;2023-11-19T01:04:18;0.80;;;0.75;;
65896;SDS011;52677;50.898;10.854;2023-11-19T01:06:28;1.02;;;0.75;;
65896;SDS011;52677;50.898;10.854;2023-11-19T01:10:32;0.65;;;0.65;;
65896;SDS011;52677;50.898;10.854;2023-11-19T01:12:32;0.70;;;0.70;;
65896;SDS011;52677;50.898;10.854;2023-11-19T01:14:32;0.90;;;0.70;;
65896;SDS011;52677;50.898;10.854;2023-11-19T01:16:33;0.63;;;0.60;;
65896;SDS011;52677;50.898;10.854;2023-11-19T01:18:33;0.55;;;0.55;;
65896;SDS011;52677;50.898;10.854;2023-11-19T01:20:33;0.50;;;0.50;;
65896;SDS011;52677;50.898;10.854;2023-11-19T01:22:34;1.55;;;0.70;;
65896;SDS011;52677;50.898;10.854;2023-11-19T01:24:35;0.50;;;0.50;;
65896;SDS011;52677;50.898;10.854;2023-11-19T01:26:35;0.52;;;0.52;;
65896;SDS011;52677;50.898;10.854;2023-11-19T01:28:36;0.50;;;0.50;;
65896;SDS011;52677;50.898;10.854;2023-11-19T01:30:36;0.68;;;0.50;;
65896;SDS011;52677;50.898;10.854;2023-11-19T01:32:37;1.40;;;0.60;;
65896;SDS011;52677;50.898;10.854;2023-11-19T01:34:37;0.43;;;0.43;;
65896;SDS011;52677;50.898;10.854;2023-11-19T01:36:38;0.50;;;0.50;;
65896;SDS011;52677;50.898;10.854;2023-11-19T01:38:39;0.65;;;0.43;;
65896;SDS011;52677;50.898;10.854;2023-11-19T01:40:39;0.50;;;0.50;;
65896;SDS011;52677;50.898;10.854;2023-11-19T01:42:40;0.40;;;0.40;;
65896;SDS011;52677;50.898;10.854;2023-11-19T01:44:41;0.40;;;0.40;;
65896;SDS011;52677;50.898;10.854;2023-11-19T01:46:42;0.40;;;0.40;;
65896;SDS011;52677;50.898;10.854;2023-11-19T01:48:47;0.50;;;0.50;;
65896;SDS011;52677;50.898;10.854;2023-11-19T01:50:47;0.50;;;0.50;;
65896;SDS011;52677;50.898;10.854;2023-11-19T01:52:48;0.40;;;0.40;;
65896;SDS011;52677;50.898;10.854;2023-11-19T01:54:48;0.40;;;0.40;;
65896;SDS011;52677;50.898;10.854;2023-11-19T01:56:50;0.40;;;0.40;;
65896;SDS011;52677;50.898;10.854;2023-11-19T01:58:53;0.40;;;0.40;;
65896;SDS011;52677;50.898;10.854;2023-11-19T02:00:56;0.45;;;0.45;;
65896;SDS011;52677;50.898;10.854;2023-11-19T02:02:57;0.40;;;0.40;;
65896;SDS011;52677;50.898;10.854;2023-11-19T02:04:57;0.40;;;0.40;;
65896;SDS011;52677;50.898;10.854;2023-11-19T02:06:58;0.40;;;0.40;;
65896;SDS011;52677;50.898;10.854;2023-11-19T02:08:58;0.63;;;0.50;;
65896;SDS011;52677;50.898;10.854;2023-11-19T02:10:59;0.40;;;0.40;;
65896;SDS011;52677;50.898;10.854;2023-11-19T02:13:00;0.40;;;0.40;;
65896;SDS011;52677;50.898;10.854;2023-11-19T02:15:02;0.50;;;0.50;;
65896;SDS011;52677;50.898;10.854;2023-11-19T02:17:03;0.50;;;0.50;;
65896;SDS011;52677;50.898;10.854;2023-11-19T02:19:04;0.50;;;0.50;;
65896;SDS011;52677;50.898;10.854;2023-11-19T02:21:06;0.40;;;0.40;;
65896;SDS011;52677;50.898;10.854;2023-11-19T02:23:06;0.40;;;0.40;;
65896;SDS011;52677;50.898;10.854;2023-11-19T02:25:07;0.45;;;0.40;;
65896;SDS011;52677;50.898;10.854;2023-11-19T02:27:26;0.40;;;0.40;;
65896;SDS011;52677;50.898;10.854;2023-11-19T02:29:33;0.40;;;0.40;;
65896;SDS011;52677;50.898;10.854;2023-11-19T02:31:34;0.40;;;0.40;;
65896;SDS011;52677;50.898;10.854;2023-11-19T02:33:36;0.40;;;0.40;;
65896;SDS011;52677;50.898;10.854;2023-11-19T02:35:37;0.40;;;0.40;;
65896;SDS011;52677;50.898;10.854;2023-11-19T02:37:38;0.40;;;0.40;;
65896;SDS011;52677;50.898;10.854;2023-11-19T02:39:39;0.40;;;0.40;;
65896;SDS011;52677;50.898;10.854;2023-11-19T02:41:39;0.40;;;0.40;;
65896;SDS011;52677;50.898;10.854;2023-11-19T02:43:39;1.55;;;0.45;;
65896;SDS011;52677;50.898;10.854;2023-11-19T02:45:40;0.68;;;0.47;;
65896;SDS011;52677;50.898;10.854;2023-11-19T02:47:40;0.35;;;0.35;;
65896;SDS011;52677;50.898;10.854;2023-11-19T02:49:42;0.40;;;0.40;;
65896;SDS011;52677;50.898;10.854;2023-11-19T02:51:44;0.40;;;0.40;;
65896;SDS011;52677;50.898;10.854;2023-11-19T02:53:44;0.50;;;0.50;;
65896;SDS011;52677;50.898;10.854;2023-11-19T02:55:48;0.40;;;0.40;;
65896;SDS011;52677;50.898;10.854;2023-11-19T02:57:50;0.40;;;0.40;;
65896;SDS011;52677;50.898;10.854;2023-11-19T02:59:53;0.57;;;0.40;;
65896;SDS011;52677;50.898;10.854;2023-11-19T03:01:56;0.40;;;0.40;;
65896;SDS011;52677;50.898;10.854;2023-11-19T03:03:57;0.40;;;0.40;;
65896;SDS011;52677;50.898;10.854;2023-11-19T03:05:58;0.40;;;0.40;;
65896;SDS011;52677;50.898;10.854;2023-11-19T03:07:58;0.50;;;0.50;;
65896;SDS011;52677;50.898;10.854;2023-11-19T03:09:58;0.52;;;0.45;;
65896;SDS011;52677;50.898;10.854;2023-11-19T03:11:59;0.38;;;0.38;;
65896;SDS011;52677;50.898;10.854;2023-11-19T03:13:59;0.40;;;0.40;;
65896;SDS011;52677;50.898;10.854;2023-11-19T03:15:59;0.40;;;0.40;;
65896;SDS011;52677;50.898;10.854;2023-11-19T03:18:00;1.50;;;0.40;;
65896;SDS011;52677;50.898;10.854;2023-11-19T03:20:00;0.40;;;0.40;;
65896;SDS011;52677;50.898;10.854;2023-11-19T03:22:01;0.50;;;0.50;;
65896;SDS011;52677;50.898;10.854;2023-11-19T03:24:02;0.40;;;0.40;;
65896;SDS011;52677;50.898;10.854;2023-11-19T03:26:03;0.40;;;0.40;;
65896;SDS011;52677;50.898;10.854;2023-11-19T03:28:05;0.45;;;0.45;;
65896;SDS011;52677;50.898;10.854;2023-11-19T03:30:06;0.40;;;0.40;;
65896;SDS011;52677;50.898;10.854;2023-11-19T03:32:07;0.40;;;0.40;;
65896;SDS011;52677;50.898;10.854;2023-11-19T03:34:07;0.50;;;0.50;;
65896;SDS011;52677;50.898;10.854;2023-11-19T03:36:08;0.40;;;0.40;;
65896;SDS011;52677;50.898;10.854;2023-11-19T03:38:09;0.50;;;0.50;;
65896;SDS011;52677;50.898;10.854;2023-11-19T03:40:09;0.57;;;0.55;;
65896;SDS011;52677;50.898;10.854;2023-11-19T03:42:10;0.52;;;0.52;;
65896;SDS011;52677;50.898;10.854;2023-11-19T03:44:13;0.70;;;0.57;;
65896;SDS011;52677;50.898;10.854;2023-11-19T03:46:17;0.75;;;0.50;;
65896;SDS011;52677;50.898;10.854;2023-11-19T03:48:18;1.65;;;0.50;;
65896;SDS011;52677;50.898;10.854;2023-11-19T03:50:19;0.60;;;0.60;;
65896;SDS011;52677;50.898;10.854;2023-11-19T03:52:20;0.55;;;0.50;;
65896;SDS011;52677;50.898;10.854;2023-11-19T03:54:20;0.77;;;0.60;;
65896;SDS011;52677;50.898;10.854;2023-11-19T03:56:23;1.98;;;1.00;;
65896;SDS011;52677;50.898;10.854;2023-11-19T03:58:23;0.88;;;0.82;;
65896;SDS011;52677;50.898;10.854;2023-11-19T04:00:23;1.15;;;0.60;;
65896;SDS011;52677;50.898;10.854;2023-11-19T04:02:24;0.55;;;0.55;;
65896;SDS011;52677;50.898;10.854;2023-11-19T04:04:27;0.80;;;0.57;;
65896;SDS011;52677;50.898;10.854;2023-11-19T04:06:28;2.00;;;0.73;;
65896;SDS011;52677;50.898;10.854;2023-11-19T04:08:28;0.50;;;0.50;;
65896;SDS011;52677;50.898;10.854;2023-11-19T04:10:29;0.65;;;0.65;;
65896;SDS011;52677;50.898;10.854;2023-11-19T04:12:29;0.50;;;0.50;;
65896;SDS011;52677;50.898;10.854;2023-11-19T04:14:29;0.40;;;0.40;;
65896;SDS011;52677;50.898;10.854;2023-11-19T04:16:30;0.40;;;0.40;;
65896;SDS011;52677;50.898;10.854;2023-11-19T04:18:30;0.63;;;0.60;;
65896;SDS011;52677;50.898;10.854;2023-11-19T04:20:32;0.80;;;0.60;;
65896;SDS011;52677;50.898;10.854;2023-11-19T04:22:32;0.43;;;0.43;;
65896;SDS011;52677;50.898;10.854;2023-11-19T04:24:32;0.50;;;0.50;;
65896;SDS011;52677;50.898;10.854;2023-11-19T04:26:33;0.50;;;0.50;;
65896;SDS011;52677;50.898;10.854;2023-11-19T04:28:34;0.50;;;0.50;;
65896;SDS011;52677;50.898;10.854;2023-11-19T04:30:34;0.50;;;0.50;;
65896;SDS011;52677;50.898;10.854;2023-11-19T04:32:35;0.90;;;0.50;;
65896;SDS011;52677;50.898;10.854;2023-11-19T04:34:35;0.70;;;0.55;;
65896;SDS011;52677;50.898;10.854;2023-11-19T04:36:37;0.70;;;0.70;;
65896;SDS011;52677;50.898;10.854;2023-11-19T04:38:37;0.45;;;0.45;;
65896;SDS011;52677;50.898;10.854;2023-11-19T04:40:41;0.60;;;0.60;;
65896;SDS011;52677;50.898;10.854;2023-11-19T04:42:42;0.40;;;0.40;;
65896;SDS011;52677;50.898;10.854;2023-11-19T04:44:42;0.55;;;0.55;;
65896;SDS011;52677;50.898;10.854;2023-11-19T04:46:43;0.60;;;0.60;;
65896;SDS011;52677;50.898;10.854;2023-11-19T04:48:44;0.50;;;0.50;;
65896;SDS011;52677;50.898;10.854;2023-11-19T04:50:45;0.50;;;0.50;;
65896;SDS011;52677;50.898;10.854;2023-11-19T04:52:45;0.47;;;0.47;;
65896;SDS011;52677;50.898;10.854;2023-11-19T04:54:45;0.40;;;0.40;;
65896;SDS011;52677;50.898;10.854;2023-11-19T04:56:46;0.50;;;0.50;;
65896;SDS011;52677;50.898;10.854;2023-11-19T04:58:47;1.08;;;0.50;;
65896;SDS011;52677;50.898;10.854;2023-11-19T05:00:47;0.50;;;0.50;;
65896;SDS011;52677;50.898;10.854;2023-11-19T05:02:47;0.55;;;0.50;;
65896;SDS011;52677;50.898;10.854;2023-11-19T05:04:48;2.28;;;0.52;;
65896;SDS011;52677;50.898;10.854;2023-11-19T05:06:49;1.35;;;0.60;;
65896;SDS011;52677;50.898;10.854;2023-11-19T05:08:49;0.55;;;0.55;;
65896;SDS011;52677;50.898;10.854;2023-11-19T05:10:49;0.40;;;0.40;;
65896;SDS011;52677;50.898;10.854;2023-11-19T05:12:50;0.40;;;0.40;;
65896;SDS011;52677;50.898;10.854;2023-11-19T05:14:51;0.45;;;0.45;;
65896;SDS011;52677;50.898;10.854;2023-11-19T05:16:52;0.47;;;0.40;;
65896;SDS011;52677;50.898;10.854;2023-11-19T05:18:52;1.02;;;0.60;;
65896;SDS011;52677;50.898;10.854;2023-11-19T05:20:52;0.40;;;0.40;;
65896;SDS011;52677;50.898;10.854;2023-11-19T05:22:53;0.50;;;0.50;;
65896;SDS011;52677;50.898;10.854;2023-11-19T05:24:53;0.50;;;0.50;;
65896;SDS011;52677;50.898;10.854;2023-11-19T05:26:54;0.50;;;0.50;;
65896;SDS011;52677;50.898;10.854;2023-11-19T05:28:54;0.55;;;0.55;;
65896;SDS011;52677;50.898;10.854;2023-11-19T05:30:55;1.23;;;0.57;;
65896;SDS011;52677;50.898;10.854;2023-11-19T05:32:55;0.52;;;0.52;;
65896;SDS011;52677;50.898;10.854;2023-11-19T05:34:56;0.60;;;0.60;;
65896;SDS011;52677;50.898;10.854;2023-11-19T05:36:56;0.68;;;0.60;;
65896;SDS011;52677;50.898;10.854;2023-11-19T05:38:57;1.67;;;0.73;;
65896;SDS011;52677;50.898;10.854;2023-11-19T05:40:58;0.88;;;0.57;;
65896;SDS011;52677;50.898;10.854;2023-11-19T05:42:58;0.60;;;0.60;;
65896;SDS011;52677;50.898;10.854;2023-11-19T05:44:59;1.70;;;0.50;;
65896;SDS011;52677;50.898;10.854;2023-11-19T05:46:59;0.73;;;0.73;;
65896;SDS011;52677;50.898;10.854;2023-11-19T05:48:59;0.60;;;0.60;;
65896;SDS011;52677;50.898;10.854;2023-11-19T05:51:00;0.70;;;0.70;;
65896;SDS011;52677;50.898;10.854;2023-11-19T05:53:00;0.85;;;0.60;;
65896;SDS011;52677;50.898;10.854;2023-11-19T05:55:01;0.70;;;0.70;;
65896;SDS011;52677;50.898;10.854;2023-11-19T05:57:09;1.60;;;0.70;;
65896;SDS011;52677;50.898;10.854;2023-11-19T05:59:09;0.60;;;0.60;;
65896;SDS011;52677;50.898;10.854;2023-11-19T06:01:15;0.60;;;0.60;;
65896;SDS011;52677;50.898;10.854;2023-11-19T06:03:15;1.73;;;0.90;;
65896;SDS011;52677;50.898;10.854;2023-11-19T06:05:15;1.05;;;0.65;;
65896;SDS011;52677;50.898;10.854;2023-11-19T06:07:16;1.95;;;0.70;;
65896;SDS011;52677;50.898;10.854;2023-11-19T06:09:16;0.60;;;0.60;;
65896;SDS011;52677;50.898;10.854;2023-11-19T06:11:18;1.85;;;0.68;;
65896;SDS011;52677;50.898;10.854;2023-11-19T06:13:20;3.53;;;1.00;;
65896;SDS011;52677;50.898;10.854;2023-11-19T06:15:21;1.08;;;0.73;;
65896;SDS011;52677;50.898;10.854;2023-11-19T06:17:22;1.20;;;0.80;;
65896;SDS011;52677;50.898;10.854;2023-11-19T06:19:22;1.83;;;1.27;;
65896;SDS011;52677;50.898;10.854;2023-11-19T06:21:24;1.75;;;0.95;;
65896;SDS011;52677;50.898;10.854;2023-11-19T06:23:25;2.13;;;0.70;;
65896;SDS011;52677;50.898;10.854;2023-11-19T06:25:25;1.02;;;0.75;;
65896;SDS011;52677;50.898;10.854;2023-11-19T06:27:26;1.00;;;0.70;;
65896;SDS011;52677;50.898;10.854;2023-11-19T06:29:26;7.05;;;1.90;;
65896;SDS011;52677;50.898;10.854;2023-11-19T06:31:27;3.75;;;1.83;;
65896;SDS011;52677;50.898;10.854;2023-11-19T06:33:27;1.05;;;0.90;;
65896;SDS011;52677;50.898;10.854;2023-11-19T06:35:28;1.55;;;0.73;;
65896;SDS011;52677;50.898;10.854;2023-11-19T06:37:37;1.67;;;0.95;;
65896;SDS011;52677;50.898;10.854;2023-11-19T06:39:38;1.42;;;1.08;;
65896;SDS011;52677;50.898;10.854;2023-11-19T06:41:39;2.80;;;1.08;;
65896;SDS011;52677;50.898;10.854;2023-11-19T06:43:39;4.10;;;1.33;;
65896;SDS011;52677;50.898;10.854;2023-11-19T06:45:39;1.75;;;1.23;;
65896;SDS011;52677;50.898;10.854;2023-11-19T06:47:40;1.13;;;1.00;;
65896;SDS011;52677;50.898;10.854;2023-11-19T06:49:43;3.33;;;0.90;;
65896;SDS011;52677;50.898;10.854;2023-11-19T06:51:44;1.30;;;0.98;;
65896;SDS011;52677;50.898;10.854;2023-11-19T06:53:46;2.88;;;1.10;;
65896;SDS011;52677;50.898;10.854;2023-11-19T06:55:46;3.22;;;1.15;;
65896;SDS011;52677;50.898;10.854;2023-11-19T06:57:46;3.17;;;0.90;;
65896;SDS011;52677;50.898;10.854;2023-11-19T06:59:47;3.15;;;1.90;;
65896;SDS011;52677;50.898;10.854;2023-11-19T07:01:47;3.13;;;1.30;;
65896;SDS011;52677;50.898;10.854;2023-11-19T07:03:47;5.53;;;1.20;;
65896;SDS011;52677;50.898;10.854;2023-11-19T07:05:48;2.67;;;1.10;;
65896;SDS011;52677;50.898;10.854;2023-11-19T07:07:48;3.17;;;1.15;;
65896;SDS011;52677;50.898;10.854;2023-11-19T07:09:49;3.50;;;1.23;;
65896;SDS011;52677;50.898;10.854;2023-11-19T07:11:50;2.50;;;1.35;;
65896;SDS011;52677;50.898;10.854;2023-11-19T07:13:53;2.70;;;1.10;;
65896;SDS011;52677;50.898;10.854;2023-11-19T07:15:55;2.35;;;1.23;;
65896;SDS011;52677;50.898;10.854;2023-11-19T07:17:56;3.60;;;1.63;;
65896;SDS011;52677;50.898;10.854;2023-11-19T07:19:58;4.13;;;1.60;;
65896;SDS011;52677;50.898;10.854;2023-11-19T07:21:59;6.80;;;1.45;;
65896;SDS011;52677;50.898;10.854;2023-11-19T07:24:00;2.22;;;1.20;;
65896;SDS011;52677;50.898;10.854;2023-11-19T07:26:00;3.72;;;1.30;;
65896;SDS011;52677;50.898;10.854;2023-11-19T07:28:01;1.48;;;0.98;;
65896;SDS011;52677;50.898;10.854;2023-11-19T07:30:07;3.97;;;1.20;;
65896;SDS011;52677;50.898;10.854;2023-11-19T07:32:07;3.42;;;1.17;;
65896;SDS011;52677;50.898;10.854;2023-11-19T07:34:08;1.75;;;1.00;;
65896;SDS011;52677;50.898;10.854;2023-11-19T07:36:09;1.55;;;0.93;;
65896;SDS011;52677;50.898;10.854;2023-11-19T07:38:10;2.35;;;1.05;;
65896;SDS011;52677;50.898;10.854;2023-11-19T07:40:10;3.55;;;1.20;;
65896;SDS011;52677;50.898;10.854;2023-11-19T07:42:11;2.30;;;1.20;;
65896;SDS011;52677;50.898;10.854;2023-11-19T07:44:11;2.90;;;1.00;;
65896;SDS011;52677;50.898;10.854;2023-11-19T07:46:12;3.42;;;1.23;;
65896;SDS011;52677;50.898;10.854;2023-11-19T07:48:13;4.78;;;1.20;;
65896;SDS011;52677;50.898;10.854;2023-11-19T07:50:15;3.45;;;1.40;;
65896;SDS011;52677;50.898;10.854;2023-11-19T07:52:16;3.33;;;1.02;;
65896;SDS011;52677;50.898;10.854;2023-11-19T07:54:17;2.70;;;1.05;;
65896;SDS011;52677;50.898;10.854;2023-11-19T07:56:17;1.42;;;1.02;;
65896;SDS011;52677;50.898;10.854;2023-11-19T07:58:17;1.63;;;0.98;;
65896;SDS011;52677;50.898;10.854;2023-11-19T08:00:18;1.23;;;0.80;;
65896;SDS011;52677;50.898;10.854;2023-11-19T08:02:19;2.92;;;0.90;;
65896;SDS011;52677;50.898;10.854;2023-11-19T08:04:20;1.00;;;0.80;;
65896;SDS011;52677;50.898;10.854;2023-11-19T08:06:20;4.45;;;0.88;;
65896;SDS011;52677;50.898;10.854;2023-11-19T08:08:21;3.72;;;0.95;;
65896;SDS011;52677;50.898;10.854;2023-11-19T08:10:21;1.85;;;0.70;;
65896;SDS011;52677;50.898;10.854;2023-11-19T08:12:22;2.20;;;0.70;;
65896;SDS011;52677;50.898;10.854;2023-11-19T08:14:22;1.15;;;0.50;;
65896;SDS011;52677;50.898;10.854;2023-11-19T08:16:24;0.93;;;0.70;;
65896;SDS011;52677;50.898;10.854;2023-11-19T08:18:24;1.73;;;0.80;;
65896;SDS011;52677;50.898;10.854;2023-11-19T08:20:24;0.82;;;0.80;;
65896;SDS011;52677;50.898;10.854;2023-11-19T08:22:25;2.85;;;1.10;;
65896;SDS011;52677;50.898;10.854;2023-11-19T08:24:25;3.72;;;1.33;;
65896;SDS011;52677;50.898;10.854;2023-11-19T08:26:25;4.03;;;0.75;;
65896;SDS011;52677;50.898;10.854;2023-11-19T08:28:26;3.30;;;1.05;;
65896;SDS011;52677;50.898;10.854;2023-11-19T08:30:27;4.82;;;1.25;;
65896;SDS011;52677;50.898;10.854;2023-11-19T08:32:27;2.28;;;1.42;;
65896;SDS011;52677;50.898;10.854;2023-11-19T08:34:28;4.88;;;1.50;;
65896;SDS011;52677;50.898;10.854;2023-11-19T08:36:28;3.58;;;1.85;;
65896;SDS011;52677;50.898;10.854;2023-11-19T08:38:28;4.45;;;1.40;;
65896;SDS011;52677;50.898;10.854;2023-11-19T08:40:29;5.50;;;1.38;;
65896;SDS011;52677;50.898;10.854;2023-11-19T08:42:29;4.07;;;1.10;;
65896;SDS011;52677;50.898;10.854;2023-11-19T08:44:30;4.82;;;1.35;;
65896;SDS011;52677;50.898;10.854;2023-11-19T08:46:30;4.78;;;1.40;;
65896;SDS011;52677;50.898;10.854;2023-11-19T08:48:31;4.13;;;1.80;;
65896;SDS011;52677;50.898;10.854;2023-11-19T08:50:31;6.85;;;2.53;;
65896;SDS011;52677;50.898;10.854;2023-11-19T08:52:32;3.00;;;1.35;;
65896;SDS011;52677;50.898;10.854;2023-11-19T08:54:32;5.57;;;2.55;;
65896;SDS011;52677;50.898;10.854;2023-11-19T08:56:33;2.65;;;1.60;;
65896;SDS011;52677;50.898;10.854;2023-11-19T08:58:35;8.45;;;1.73;;
65896;SDS011;52677;50.898;10.854;2023-11-19T09:00:35;11.40;;;2.53;;
65896;SDS011;52677;50.898;10.854;2023-11-19T09:02:36;5.65;;;1.95;;
65896;SDS011;52677;50.898;10.854;2023-11-19T09:04:37;3.80;;;1.80;;
65896;SDS011;52677;50.898;10.854;2023-11-19T09:06:37;4.43;;;1.65;;
65896;SDS011;52677;50.898;10.854;2023-11-19T09:08:37;11.55;;;1.67;;
65896;SDS011;52677;50.898;10.854;2023-11-19T09:10:38;4.75;;;1.48;;
65896;SDS011;52677;50.898;10.854;2023-11-19T09:12:38;5.18;;;2.30;;
65896;SDS011;52677;50.898;10.854;2023-11-19T09:14:38;12.93;;;3.25;;
65896;SDS011;52677;50.898;10.854;2023-11-19T09:16:39;5.32;;;2.20;;
65896;SDS011;52677;50.898;10.854;2023-11-19T09:18:39;5.95;;;1.90;;
65896;SDS011;52677;50.898;10.854;2023-11-19T09:20:39;7.15;;;2.10;;
65896;SDS011;52677;50.898;10.854;2023-11-19T09:22:40;6.78;;;2.00;;
65896;SDS011;52677;50.898;10.854;2023-11-19T09:24:40;7.20;;;2.30;;
65896;SDS011;52677;50.898;10.854;2023-11-19T09:26:41;6.20;;;2.03;;
65896;SDS011;52677;50.898;10.854;2023-11-19T09:28:41;4.30;;;2.00;;
65896;SDS011;52677;50.898;10.854;2023-11-19T09:30:42;5.05;;;1.48;;
65896;SDS011;52677;50.898;10.854;2023-11-19T09:32:42;4.45;;;1.95;;
65896;SDS011;52677;50.898;10.854;2023-11-19T09:34:42;8.27;;;1.73;;
65896;SDS011;52677;50.898;10.854;2023-11-19T09:36:43;10.07;;;2.55;;
65896;SDS011;52677;50.898;10.854;2023-11-19T09:38:44;8.98;;;2.25;;
65896;SDS011;52677;50.898;10.854;2023-11-19T09:40:44;10.77;;;2.53;;
65896;SDS011;52677;50.898;10.854;2023-11-19T09:42:45;7.00;;;2.33;;
65896;SDS011;52677;50.898;10.854;2023-11-19T09:44:46;5.50;;;2.00;;
65896;SDS011;52677;50.898;10.854;2023-11-19T09:46:47;8.50;;;2.55;;
65896;SDS011;52677;50.898;10.854;2023-11-19T09:48:49;9.38;;;2.90;;
65896;SDS011;52677;50.898;10.854;2023-11-19T09:50:54;7.30;;;3.60;;
65896;SDS011;52677;50.898;10.854;2023-11-19T09:52:55;8.45;;;3.38;;
65896;SDS011;52677;50.898;10.854;2023-11-19T09:54:55;6.85;;;1.90;;
65896;SDS011;52677;50.898;10.854;2023-11-19T09:56:56;5.97;;;2.38;;
65896;SDS011;52677;50.898;10.854;2023-11-19T09:59:03;6.78;;;2.42;;
65896;SDS011;52677;50.898;10.854;2023-11-19T10:01:04;10.65;;;2.40;;
65896;SDS011;52677;50.898;10.854;2023-11-19T10:03:11;6.35;;;2.47;;
65896;SDS011;52677;50.898;10.854;2023-11-19T10:05:13;7.75;;;3.78;;
65896;SDS011;52677;50.898;10.854;2023-11-19T10:07:14;7.72;;;3.47;;
65896;SDS011;52677;50.898;10.854;2023-11-19T10:09:15;7.60;;;2.53;;
65896;SDS011;52677;50.898;10.854;2023-11-19T10:11:15;10.90;;;3.22;;
65896;SDS011;52677;50.898;10.854;2023-11-19T10:13:17;8.02;;;2.47;;
65896;SDS011;52677;50.898;10.854;2023-11-19T10:15:21;4.68;;;2.30;;
65896;SDS011;52677;50.898;10.854;2023-11-19T10:17:33;4.90;;;2.40;;
65896;SDS011;52677;50.898;10.854;2023-11-19T10:19:34;11.18;;;3.25;;
65896;SDS011;52677;50.898;10.854;2023-11-19T10:21:35;6.10;;;2.90;;
65896;SDS011;52677;50.898;10.854;2023-11-19T10:23:48;8.98;;;3.08;;
65896;SDS011;52677;50.898;10.854;2023-11-19T10:25:50;5.72;;;2.10;;
65896;SDS011;52677;50.898;10.854;2023-11-19T10:27:53;7.93;;;2.72;;
65896;SDS011;52677;50.898;10.854;2023-11-19T10:29:55;8.98;;;2.78;;
65896;SDS011;52677;50.898;10.854;2023-11-19T10:31:59;4.97;;;2.60;;
65896;SDS011;52677;50.898;10.854;2023-11-19T10:34:00;8.40;;;2.92;;
65896;SDS011;52677;50.898;10.854;2023-11-19T10:36:00;6.97;;;2.42;;
65896;SDS011;52677;50.898;10.854;2023-11-19T10:38:01;8.00;;;2.20;;
65896;SDS011;52677;50.898;10.854;2023-11-19T10:40:13;13.10;;;4.78;;
65896;SDS011;52677;50.898;10.854;2023-11-19T10:42:15;11.30;;;3.75;;
65896;SDS011;52677;50.898;10.854;2023-11-19T10:44:32;6.83;;;2.10;;
65896;SDS011;52677;50.898;10.854;2023-11-19T10:46:36;9.82;;;2.38;;
65896;SDS011;52677;50.898;10.854;2023-11-19T10:48:41;6.82;;;2.65;;
65896;SDS011;52677;50.898;10.854;2023-11-19T10:50:42;9.23;;;2.70;;
65896;SDS011;52677;50.898;10.854;2023-11-19T10:52:43;8.88;;;2.40;;
65896;SDS011;52677;50.898;10.854;2023-11-19T10:54:44;7.32;;;2.00;;
65896;SDS011;52677;50.898;10.854;2023-11-19T10:56:50;10.98;;;2.30;;
65896;SDS011;52677;50.898;10.854;2023-11-19T10:59:01;9.77;;;2.13;;
65896;SDS011;52677;50.898;10.854;2023-11-19T11:01:03;10.10;;;2.20;;
65896;SDS011;52677;50.898;10.854;2023-11-19T11:03:15;6.30;;;2.58;;
65896;SDS011;52677;50.898;10.854;2023-11-19T11:05:17;7.40;;;3.05;;
65896;SDS011;52677;50.898;10.854;2023-11-19T11:07:21;7.15;;;1.88;;
65896;SDS011;52677;50.898;10.854;2023-11-19T11:09:26;13.00;;;2.17;;
65896;SDS011;52677;50.898;10.854;2023-11-19T11:11:27;5.18;;;2.13;;
65896;SDS011;52677;50.898;10.854;2023-11-19T11:13:28;6.03;;;2.00;;
65896;SDS011;52677;50.898;10.854;2023-11-19T11:15:30;5.80;;;2.33;;
65896;SDS011;52677;50.898;10.854;2023-11-19T11:17:31;11.32;;;2.97;;
65896;SDS011;52677;50.898;10.854;2023-11-19T11:19:33;8.52;;;2.15;;
65896;SDS011;52677;50.898;10.854;2023-11-19T11:21:34;8.55;;;2.90;;
65896;SDS011;52677;50.898;10.854;2023-11-19T11:26:05;10.88;;;3.25;;
65896;SDS011;52677;50.898;10.854;2023-11-19T11:30:54;10.60;;;3.15;;
65896;SDS011;52677;50.898;10.854;2023-11-19T11:37:39;4.72;;;1.63;;
65896;SDS011;52677;50.898;10.854;2023-11-19T11:39:48;7.93;;;2.22;;
65896;SDS011;52677;50.898;10.854;2023-11-19T11:42:18;9.82;;;2.05;;
65896;SDS011;52677;50.898;10.854;2023-11-19T11:44:57;5.70;;;2.40;;
65896;SDS011;52677;50.898;10.854;2023-11-19T11:46:58;8.40;;;1.80;;
65896;SDS011;52677;50.898;10.854;2023-11-19T11:51:02;6.20;;;2.40;;
65896;SDS011;52677;50.898;10.854;2023-11-19T11:55:05;7.72;;;2.20;;
65896;SDS011;52677;50.898;10.854;2023-11-19T11:59:19;9.00;;;2.15;;
65896;SDS011;52677;50.898;10.854;2023-11-19T12:01:19;5.38;;;1.80;;
65896;SDS011;52677;50.898;10.854;2023-11-19T12:03:21;7.65;;;1.98;;
65896;SDS011;52677;50.898;10.854;2023-11-19T12:05:22;5.60;;;1.88;;
65896;SDS011;52677;50.898;10.854;2023-11-19T12:07:24;6.45;;;2.97;;
65896;SDS011;52677;50.898;10.854;2023-11-19T12:09:25;8.02;;;2.35;;
65896;SDS011;52677;50.898;10.854;2023-11-19T12:11:26;8.10;;;1.95;;
65896;SDS011;52677;50.898;10.854;2023-11-19T12:13:47;7.47;;;2.10;;
65896;SDS011;52677;50.898;10.854;2023-11-19T12:17:58;7.65;;;1.85;;
65896;SDS011;52677;50.898;10.854;2023-11-19T12:20:02;6.30;;;2.05;;
65896;SDS011;52677;50.898;10.854;2023-11-19T12:22:11;3.40;;;1.88;;